createdAt,value
2022-11-20T00:03:56.343Z,67.90
2022-11-20T00:14:03.726Z,62.90
2022-11-20T00:24:11.105Z,66.30
2022-11-20T00:34:17.397Z,61.70
2022-11-20T00:44:23.700Z,66.20
2022-11-20T00:54:30.330Z,63.20
2022-11-20T01:04:36.582Z,63.90
2022-11-20T01:14:42.860Z,67.80
2022-11-20T01:24:49.660Z,67.10
2022-11-20T01:34:55.981Z,67.40
2022-11-20T01:45:03.214Z,67.30
2022-11-20T01:55:12.130Z,74.70
2022-11-20T02:05:35.129Z,70.80
2022-11-20T02:15:42.295Z,73.60
2022-11-20T02:25:49.960Z,69.80
2022-11-20T02:35:56.268Z,68.20
2022-11-20T02:46:02.520Z,72.20
2022-11-20T02:56:09.414Z,66.60
2022-11-20T03:06:16.008Z,68.00
2022-11-20T03:16:23.788Z,64.40
2022-11-20T03:26:30.940Z,66.30
2022-11-20T03:36:40.051Z,66.30
2022-11-20T03:46:46.312Z,63.40
2022-11-20T03:56:52.816Z,63.00
2022-11-20T04:06:59.098Z,64.90
2022-11-20T04:17:05.938Z,61.90
2022-11-20T04:27:12.238Z,60.70
2022-11-20T04:37:18.551Z,64.00
2022-11-20T04:47:24.880Z,62.20
2022-11-20T04:57:31.134Z,61.80
2022-11-20T05:07:37.428Z,63.60
2022-11-20T05:17:43.697Z,63.20
2022-11-20T05:27:49.933Z,62.30
2022-11-20T05:37:56.178Z,64.10
2022-11-20T05:48:03.061Z,61.90
2022-11-20T05:58:09.296Z,60.50
2022-11-20T06:08:15.584Z,66.10
2022-11-20T06:18:22.281Z,65.10
2022-11-20T06:28:28.781Z,64.40
2022-11-20T06:38:35.066Z,70.40
2022-11-20T06:48:42.052Z,73.80
2022-11-20T06:58:48.319Z,71.00
2022-11-20T07:08:54.870Z,78.80
2022-11-20T07:19:01.262Z,74.00
2022-11-20T07:29:07.526Z,81.10
2022-11-20T07:39:13.798Z,76.20
2022-11-20T07:49:20.425Z,92.80
2022-11-20T07:59:26.904Z,84.40
2022-11-20T08:09:33.168Z,82.50
2022-11-20T08:19:39.450Z,86.50
2022-11-20T08:29:45.697Z,89.90
2022-11-20T08:39:51.974Z,94.90
2022-11-20T08:49:58.221Z,99.40
2022-11-20T09:00:07.448Z,103.90
2022-11-20T09:10:23.930Z,103.40
2022-11-20T09:20:32.350Z,97.80
2022-11-20T09:30:38.613Z,91.10
2022-11-20T09:40:53.918Z,83.60
2022-11-20T09:51:03.008Z,84.50
2022-11-20T10:01:16.491Z,89.50
2022-11-20T10:12:00.225Z,83.30
2022-11-20T10:22:34.614Z,89.40
2022-11-20T10:32:43.299Z,77.00
2022-11-20T10:42:54.446Z,90.80
2022-11-20T10:53:38.288Z,103.80
2022-11-20T11:03:47.740Z,103.70
2022-11-20T11:13:54.607Z,99.30
2022-11-20T11:24:34.818Z,88.50
2022-11-20T11:34:32.195Z,84.30
2022-11-20T11:44:57.031Z,84.10
2022-11-20T11:55:11.524Z,80.70
2022-11-20T12:05:28.244Z,82.20
2022-11-20T12:15:36.550Z,76.90
2022-11-20T12:25:46.399Z,70.60
2022-11-20T12:36:28.145Z,63.80
2022-11-20T12:46:44.409Z,60.95
2022-11-20T12:56:51.335Z,64.10
2022-11-20T13:06:59.452Z,50.40
2022-11-20T13:17:33.111Z,49.10
2022-11-20T13:27:49.571Z,52.10
2022-11-20T13:38:13.912Z,50.30
2022-11-20T13:48:26.504Z,53.20
2022-11-20T13:58:35.727Z,53.00
2022-11-20T14:08:45.387Z,50.90
2022-11-20T14:18:52.069Z,51.80
2022-11-20T14:28:58.813Z,51.80
2022-11-20T14:39:05.153Z,64.90
2022-11-20T14:49:12.588Z,78.80
2022-11-20T14:59:25.618Z,78.70
2022-11-20T15:09:31.864Z,83.20
2022-11-20T15:19:38.199Z,88.60
2022-11-20T15:29:44.648Z,89.40
2022-11-20T15:39:50.983Z,97.50
2022-11-20T15:49:57.271Z,96.70
2022-11-20T16:00:03.538Z,100.00
2022-11-20T16:10:10.236Z,86.80
2022-11-20T16:20:16.584Z,93.50
2022-11-20T16:30:22.867Z,85.80
2022-11-20T16:40:29.202Z,80.80
2022-11-20T16:50:35.437Z,86.00
2022-11-20T17:00:46.897Z,85.30
2022-11-20T17:10:56.867Z,87.70
2022-11-20T17:21:06.870Z,54.20
2022-11-20T17:31:18.548Z,38.50
2022-11-20T17:41:26.725Z,41.40
2022-11-20T17:51:35.776Z,38.40
2022-11-20T18:01:44.210Z,41.20
2022-11-20T18:11:50.607Z,36.20
2022-11-20T18:21:57.199Z,38.70
2022-11-20T18:32:03.467Z,39.20
2022-11-20T18:42:35.574Z,51.80
2022-11-20T18:52:45.456Z,45.60
2022-11-20T19:02:54.684Z,40.70
2022-11-20T19:13:00.976Z,37.00
2022-11-20T19:23:07.196Z,37.90
2022-11-20T19:33:13.474Z,39.40
2022-11-20T19:43:19.715Z,41.40
2022-11-20T19:53:26.148Z,43.10
2022-11-20T20:03:33.243Z,43.10
2022-11-20T20:13:39.913Z,39.80
2022-11-20T20:23:46.720Z,38.40
2022-11-20T20:33:53.069Z,35.60
2022-11-20T20:44:17.933Z,34.80
2022-11-20T20:54:24.159Z,40.10
2022-11-20T21:04:30.432Z,48.30
2022-11-20T21:14:36.734Z,42.40
2022-11-20T21:24:43.057Z,38.80
2022-11-20T21:34:49.289Z,40.70
2022-11-20T21:44:55.589Z,36.70
2022-11-20T21:55:01.849Z,37.40
2022-11-20T22:05:09.081Z,40.50
2022-11-20T22:15:27.985Z,36.20
2022-11-20T22:25:41.580Z,35.30
2022-11-20T22:35:47.809Z,35.00
2022-11-20T22:45:54.083Z,34.40
2022-11-20T22:56:01.331Z,34.20
2022-11-20T23:06:08.434Z,35.80
2022-11-20T23:16:16.963Z,36.30
2022-11-20T23:26:25.180Z,37.00
2022-11-20T23:36:31.792Z,40.10
2022-11-20T23:46:38.057Z,34.50
2022-11-20T23:56:44.922Z,37.00
